Detall de PIREP

Printer-friendly versionPDF version

[2015/06/10 07:47:00]
Flight IATA:CT1005
Pilot Number:011
Company ICAO:CAT
Aircraft Type:B738/F
PAX:160
Departing Airport: EYKA
Destination Airport: ELLX
Alternate Airport:EDDK
Online: VATSIM
Route:TIMIX DCT BOKSU UN858 BETEX
Flight Level:F300
No Slew and time accel
No pause
Crash detect
Detect pilot in Cockpit between each 30 and 45 minutes
07:47 Zero fuel Weight: 137491 Lbs, Fuel Weight: 18412 Lbs
07:47 VATSIM:EYKA 100720Z 35006KT 300V050 CAVOK 15/04 Q1027
07:47 VATSIM:ELLX 100720Z 07013KT 020V110 CAVOK 14/07 Q1023 NOSIG
07:52 Parking Brakes off
08:05 Take-off
08:05 Take off Weight: 154816 Lbs
08:05 Wind: 345º @ 005 Knots Heading: 266º
08:05 POS N54º 57´ 49´´ E024º 04´ 45´´
08:05 Flaps:5 at 174 Knots
08:05 Gear Up: 174 Knots
08:06 Flaps:4 at 234 Knots
08:06 Flaps:3 at 238 Knots
08:06 Flaps:1 at 240 Knots
08:06 Flaps:0 at 240 Knots
08:19 TOC
08:19 Fuel Weight: 14294 Lb
08:20 Wind:318º@017 Knots Heading: 256º Ground Speed: 430 Knots Altitude 30393 ft
08:35 Wind:357º@023 Knots Heading: 254º Ground Speed: 455 Knots Altitude 30433 ft
08:50 Wind:045º@016 Knots Heading: 248º Ground Speed: 463 Knots Altitude 30416 ft
09:05 Wind:070º@029 Knots Heading: 244º Ground Speed: 480 Knots Altitude 30410 ft
09:20 Wind:069º@037 Knots Heading: 246º Ground Speed: 487 Knots Altitude 30410 ft
09:30 TOD
09:30 Fuel Weight: 7245 Lb
09:35 Wind:058º@041 Knots Heading: 253º Ground Speed: 451 Knots Altitude 20764 ft
09:45 Flaps:1 at 245 Knots
09:45 Flaps:2 at 243 Knots
09:46 Flaps:3 at 211 Knots
09:47 Flaps:4 at 186 Knots
09:48 Flaps:5 at 174 Knots
09:49 Flaps:6 at 164 Knots
09:49 Gear Down: 164 Knots
09:49 Flaps:7 at 161 Knots
09:50 Wind:056º@013 Knots Heading: 157º Ground Speed: 166 Knots Altitude 2969 ft
09:50 Flaps:8 at 161 Knots
09:53 TouchDown:Rate -313 ft/min Speed: 119 Knots
09:53 VATSIM:ELLX 100920Z 06013KT 030V100 9999 FEW040 17/09 Q1023 NOSIG
09:53 Land
09:53 Wind:056º@013 Knots
09:53 Heading: 059º
09:53 Flight Duration: 01:48
09:53 Landing Weight: 143376 Lbs
09:53 POS N49º 37´ 28´´ E006º 12´ 20´´
09:55 Parking brakes on
09:55 Block to Block Duration: 02:03
09:55 Final Fuel: 5769 Lbls
09:55 Spent Fuel: 12643 Lbls
09:55 Flight Length: 757 NM
09:55 TOD Land Length: 127 NM

Exportar CSV

Powered by Drupal - Modified by Danger4k